createdAt,value
2023-01-11T00:00:59.618Z,10.68
2023-01-11T00:03:26.124Z,10.66
2023-01-11T00:05:56.108Z,10.68
2023-01-11T00:08:24.408Z,10.69
2023-01-11T00:10:51.469Z,10.67
2023-01-11T00:13:18.456Z,10.67
2023-01-11T00:15:45.436Z,10.71
2023-01-11T00:18:12.227Z,10.71
2023-01-11T00:20:39.986Z,10.72
2023-01-11T00:23:06.553Z,10.73
2023-01-11T00:25:33.504Z,10.77
2023-01-11T00:27:59.962Z,10.73
2023-01-11T00:30:26.414Z,10.77
2023-01-11T00:32:57.451Z,10.81
2023-01-11T00:35:24.701Z,10.82
2023-01-11T00:37:53.570Z,10.82
2023-01-11T00:40:20.709Z,10.85
2023-01-11T00:43:06.115Z,10.86
2023-01-11T00:45:51.322Z,10.88
2023-01-11T00:48:17.859Z,10.91
2023-01-11T00:50:44.315Z,10.89
2023-01-11T00:53:10.908Z,10.85
2023-01-11T00:55:37.687Z,10.94
2023-01-11T00:58:06.839Z,10.92
2023-01-11T01:00:33.409Z,10.96
2023-01-11T01:03:00.916Z,10.95
2023-01-11T01:05:27.412Z,10.97
2023-01-11T01:07:53.963Z,10.99
2023-01-11T01:10:20.829Z,11.00
2023-01-11T01:13:06.270Z,11.03
2023-01-11T01:15:34.038Z,11.06
2023-01-11T01:18:00.992Z,11.04
2023-01-11T01:20:27.882Z,11.04
2023-01-11T01:22:54.601Z,11.04
2023-01-11T01:25:21.127Z,11.03
2023-01-11T01:27:50.033Z,11.01
2023-01-11T01:30:16.833Z,10.98
2023-01-11T01:32:43.341Z,11.02
2023-01-11T01:35:09.988Z,11.05
2023-01-11T01:37:36.584Z,10.99
2023-01-11T01:40:03.987Z,11.00
2023-01-11T01:42:30.577Z,10.98
2023-01-11T01:45:02.310Z,10.99
2023-01-11T01:47:40.573Z,10.96
2023-01-11T01:50:13.326Z,10.94
2023-01-11T01:52:40.702Z,10.95
2023-01-11T01:55:12.045Z,10.97
2023-01-11T01:57:45.037Z,10.93
2023-01-11T02:00:12.516Z,10.95
2023-01-11T02:02:40.937Z,10.94
2023-01-11T02:05:08.905Z,10.93
2023-01-11T02:07:38.651Z,10.94
2023-01-11T02:10:12.604Z,10.93
2023-01-11T02:12:45.365Z,10.93
2023-01-11T02:15:12.783Z,10.97
2023-01-11T02:17:39.378Z,10.96
2023-01-11T02:20:24.175Z,10.95
2023-01-11T02:23:23.131Z,10.89
2023-01-11T02:26:14.019Z,10.94
2023-01-11T02:28:58.475Z,10.93
2023-01-11T02:31:32.862Z,10.90
2023-01-11T02:34:28.496Z,10.93
2023-01-11T02:37:40.519Z,10.95
2023-01-11T02:40:07.390Z,10.97
2023-01-11T02:43:06.420Z,10.94
2023-01-11T02:45:56.005Z,10.90
2023-01-11T02:48:45.976Z,10.91
2023-01-11T02:51:19.849Z,10.87
2023-01-11T02:53:57.996Z,10.86
2023-01-11T02:56:31.051Z,10.88
2023-01-11T02:59:00.590Z,10.88
2023-01-11T03:01:27.107Z,10.85
2023-01-11T03:03:53.930Z,10.85
2023-01-11T03:06:31.867Z,10.83
2023-01-11T03:09:25.044Z,10.84
2023-01-11T03:12:35.405Z,10.84
2023-01-11T03:15:26.296Z,10.84
2023-01-11T03:18:14.561Z,10.88
2023-01-11T03:20:46.933Z,10.84
2023-01-11T03:23:41.556Z,10.84
2023-01-11T03:26:13.817Z,10.86
2023-01-11T03:28:48.540Z,10.84
2023-01-11T03:31:32.573Z,10.87
2023-01-11T03:34:03.683Z,10.89
2023-01-11T03:36:41.987Z,10.90
2023-01-11T03:39:26.696Z,10.88
2023-01-11T03:41:58.391Z,10.88
2023-01-11T03:44:28.147Z,10.88
2023-01-11T03:47:02.729Z,10.86
2023-01-11T03:49:41.773Z,10.89
2023-01-11T03:52:12.540Z,10.88
2023-01-11T03:54:40.714Z,10.89
2023-01-11T03:57:50.545Z,10.89
2023-01-11T04:00:21.600Z,10.87
2023-01-11T04:02:49.561Z,10.87
2023-01-11T04:05:16.106Z,10.85
2023-01-11T04:07:42.545Z,10.85
2023-01-11T04:10:09.895Z,10.84
2023-01-11T04:12:36.350Z,10.81
2023-01-11T04:15:05.191Z,10.77
2023-01-11T04:17:32.181Z,10.76
2023-01-11T04:19:58.668Z,10.70
2023-01-11T04:22:25.142Z,10.64
2023-01-11T04:24:51.652Z,10.60
2023-01-11T04:27:18.076Z,10.58
2023-01-11T04:29:45.627Z,10.53
2023-01-11T04:32:12.243Z,10.49
2023-01-11T04:34:38.737Z,10.45
2023-01-11T04:37:05.168Z,10.41
2023-01-11T04:39:31.613Z,10.38
2023-01-11T04:42:16.746Z,10.35
2023-01-11T04:44:43.204Z,10.35
2023-01-11T04:47:09.688Z,10.33
2023-01-11T04:49:36.149Z,10.34
2023-01-11T04:52:02.675Z,10.28
2023-01-11T04:54:29.212Z,10.24
2023-01-11T04:56:55.655Z,10.21
2023-01-11T04:59:22.121Z,10.18
2023-01-11T05:01:48.623Z,10.16
2023-01-11T05:04:15.299Z,10.12
2023-01-11T05:06:41.983Z,10.08
2023-01-11T05:09:14.489Z,10.06
2023-01-11T05:11:41.045Z,10.01
2023-01-11T05:14:08.174Z,9.95
2023-01-11T05:16:34.841Z,9.94
2023-01-11T05:19:02.125Z,9.90
2023-01-11T05:21:33.656Z,9.84
2023-01-11T05:24:02.767Z,9.73
2023-01-11T05:26:35.359Z,9.75
2023-01-11T05:29:07.196Z,9.69
2023-01-11T05:31:35.128Z,9.66
2023-01-11T05:34:01.659Z,9.65
2023-01-11T05:36:28.745Z,9.60
2023-01-11T05:38:56.770Z,9.61
2023-01-11T05:41:25.806Z,9.56
2023-01-11T05:44:11.578Z,9.52
2023-01-11T05:46:39.901Z,9.43
2023-01-11T05:49:07.636Z,9.41
2023-01-11T05:51:35.134Z,9.36
2023-01-11T05:54:03.930Z,9.31
2023-01-11T05:56:30.930Z,9.25
2023-01-11T05:58:57.521Z,9.18
2023-01-11T06:01:25.007Z,9.13
2023-01-11T06:03:51.785Z,9.07
2023-01-11T06:06:19.623Z,8.99
2023-01-11T06:08:46.118Z,8.99
2023-01-11T06:11:12.585Z,8.92
2023-01-11T06:13:39.119Z,8.87
2023-01-11T06:16:14.907Z,8.80
2023-01-11T06:18:45.371Z,8.68
2023-01-11T06:21:13.242Z,8.67
2023-01-11T06:23:43.550Z,8.62
2023-01-11T06:26:14.056Z,8.54
2023-01-11T06:28:41.305Z,8.50
2023-01-11T06:31:08.096Z,8.48
2023-01-11T06:33:35.158Z,8.45
2023-01-11T06:36:10.198Z,8.44
2023-01-11T06:38:37.737Z,8.45
2023-01-11T06:41:08.349Z,8.38
2023-01-11T06:43:36.430Z,8.35
2023-01-11T06:46:03.413Z,8.35
2023-01-11T06:48:29.979Z,8.29
2023-01-11T06:50:58.399Z,8.29
2023-01-11T06:53:28.473Z,8.25
2023-01-11T06:55:57.817Z,8.22
2023-01-11T06:58:25.502Z,8.19
2023-01-11T07:00:53.317Z,8.19
2023-01-11T07:03:24.441Z,8.14
2023-01-11T07:05:52.214Z,8.08
2023-01-11T07:08:19.954Z,8.07
2023-01-11T07:10:46.854Z,8.03
2023-01-11T07:13:16.311Z,8.02
2023-01-11T07:15:48.888Z,8.01
2023-01-11T07:18:15.655Z,8.04
2023-01-11T07:20:42.323Z,8.03
2023-01-11T07:23:09.869Z,8.02
2023-01-11T07:25:36.846Z,7.99
2023-01-11T07:28:06.250Z,8.02
2023-01-11T07:30:44.768Z,7.99
2023-01-11T07:33:18.621Z,7.93
2023-01-11T07:35:47.184Z,7.94
2023-01-11T07:38:13.661Z,7.96
2023-01-11T07:40:40.152Z,7.93
2023-01-11T07:43:16.531Z,7.86
2023-01-11T07:45:47.981Z,7.80
2023-01-11T07:48:20.700Z,7.77
2023-01-11T07:50:47.654Z,7.77
2023-01-11T07:53:14.504Z,7.75
2023-01-11T07:55:41.291Z,7.71
2023-01-11T07:58:11.599Z,7.77
2023-01-11T08:00:38.753Z,7.83
2023-01-11T08:03:05.526Z,7.83
2023-01-11T08:05:32.161Z,7.86
2023-01-11T08:07:58.787Z,7.82
2023-01-11T08:10:25.343Z,7.80
2023-01-11T08:13:10.843Z,7.77
2023-01-11T08:15:37.585Z,7.72
2023-01-11T08:18:05.937Z,7.72
2023-01-11T08:20:33.072Z,7.71
2023-01-11T08:23:07.132Z,7.76
2023-01-11T08:25:34.136Z,7.80
2023-01-11T08:28:02.302Z,7.82
2023-01-11T08:30:29.528Z,7.89
2023-01-11T08:32:57.491Z,8.01
2023-01-11T08:35:25.719Z,8.00
2023-01-11T08:37:52.742Z,8.03
2023-01-11T08:40:21.052Z,8.01
2023-01-11T08:42:51.418Z,8.09
2023-01-11T08:45:18.160Z,8.11
2023-01-11T08:47:44.744Z,8.20
2023-01-11T08:50:11.550Z,8.26
2023-01-11T08:52:38.082Z,8.36
2023-01-11T08:55:07.830Z,8.49
2023-01-11T08:57:36.558Z,8.63
2023-01-11T09:00:05.435Z,8.78
2023-01-11T09:02:34.772Z,8.81
2023-01-11T09:05:01.329Z,8.87
2023-01-11T09:07:27.916Z,8.87
2023-01-11T09:09:54.454Z,8.83
2023-01-11T09:12:21.297Z,8.93
2023-01-11T09:14:47.760Z,9.08
2023-01-11T09:17:14.303Z,9.17
2023-01-11T09:19:40.863Z,9.18
2023-01-11T09:22:07.333Z,9.21
2023-01-11T09:24:33.806Z,9.25
2023-01-11T09:27:00.644Z,9.28
2023-01-11T09:29:27.228Z,9.27
2023-01-11T09:31:53.796Z,9.29
2023-01-11T09:34:21.082Z,9.25
2023-01-11T09:36:48.910Z,9.21
2023-01-11T09:39:18.791Z,9.26
2023-01-11T09:42:00.812Z,9.25
2023-01-11T09:44:29.760Z,9.24
2023-01-11T09:47:15.394Z,9.18
2023-01-11T09:49:47.151Z,9.21
2023-01-11T09:52:39.654Z,9.25
2023-01-11T09:55:11.393Z,9.33
2023-01-11T09:58:04.035Z,9.44
2023-01-11T10:01:01.203Z,9.55
2023-01-11T10:03:53.112Z,9.70
2023-01-11T10:06:44.232Z,9.72
2023-01-11T10:18:37.724Z,9.82
2023-01-11T10:18:50.078Z,9.84
2023-01-11T10:21:21.325Z,9.89
2023-01-11T10:24:02.772Z,10.03
2023-01-11T10:26:39.690Z,10.24
2023-01-11T10:29:21.019Z,10.42
2023-01-11T10:32:22.244Z,10.50
2023-01-11T10:35:13.615Z,10.59
2023-01-11T10:37:48.142Z,10.81
2023-01-11T10:40:31.149Z,10.85
2023-01-11T10:43:13.165Z,10.81
2023-01-11T10:45:46.862Z,10.45
2023-01-11T10:48:34.499Z,10.29
2023-01-11T10:51:12.381Z,10.18
2023-01-11T10:53:50.595Z,10.06
2023-01-11T10:56:22.954Z,9.92
2023-01-11T10:59:17.279Z,9.91
2023-01-11T11:01:57.276Z,9.87
2023-01-11T11:04:32.729Z,9.99
2023-01-11T11:07:18.403Z,10.09
2023-01-11T11:09:57.463Z,10.28
2023-01-11T11:12:29.637Z,10.33
2023-01-11T11:15:21.759Z,10.54
2023-01-11T11:17:50.903Z,10.99
2023-01-11T11:20:18.987Z,11.39
2023-01-11T11:22:45.689Z,11.81
2023-01-11T11:25:33.988Z,12.06
2023-01-11T11:28:27.121Z,11.86
2023-01-11T11:30:56.896Z,11.50
2023-01-11T11:33:33.719Z,11.54
2023-01-11T11:36:04.981Z,11.63
2023-01-11T11:38:35.221Z,11.83
2023-01-11T11:41:04.673Z,11.57
2023-01-11T11:43:33.986Z,11.17
2023-01-11T11:46:03.455Z,10.82
2023-01-11T11:48:32.847Z,10.74
2023-01-11T11:51:03.182Z,11.10
2023-01-11T11:53:54.790Z,11.22
2023-01-11T11:56:28.442Z,11.57
2023-01-11T11:58:57.070Z,11.61
2023-01-11T12:01:29.757Z,11.63
2023-01-11T12:04:00.984Z,11.68
2023-01-11T12:06:29.089Z,12.03
2023-01-11T12:08:58.502Z,12.18
2023-01-11T12:11:32.769Z,11.97
2023-01-11T12:14:04.007Z,11.78
2023-01-11T12:16:35.510Z,12.06
2023-01-11T12:19:02.300Z,11.72
2023-01-11T12:21:30.329Z,11.89
2023-01-11T12:24:19.324Z,12.43
2023-01-11T12:27:06.563Z,12.32
2023-01-11T12:29:59.270Z,12.35
2023-01-11T12:32:50.456Z,12.66
2023-01-11T12:35:27.788Z,12.40
2023-01-11T12:38:02.408Z,12.49
2023-01-11T12:41:08.566Z,12.49
2023-01-11T12:44:02.180Z,12.57
2023-01-11T12:47:04.792Z,12.60
2023-01-11T12:49:45.957Z,12.31
2023-01-11T12:52:41.666Z,12.10
2023-01-11T12:55:35.905Z,12.18
2023-01-11T12:58:11.548Z,12.30
2023-01-11T13:00:58.084Z,12.64
2023-01-11T13:03:43.142Z,12.10
2023-01-11T13:06:30.564Z,12.10
2023-01-11T13:09:16.781Z,12.18
2023-01-11T13:12:13.439Z,12.29
2023-01-11T13:15:03.179Z,12.21
2023-01-11T13:17:40.769Z,12.21
2023-01-11T13:20:19.231Z,12.32
2023-01-11T13:22:53.107Z,12.21
2023-01-11T13:25:34.125Z,12.36
2023-01-11T13:28:04.941Z,12.33
2023-01-11T13:30:32.219Z,12.44
2023-01-11T13:33:04.634Z,12.43
2023-01-11T13:35:40.698Z,12.25
2023-01-11T13:38:27.970Z,12.22
2023-01-11T13:41:01.401Z,12.20
2023-01-11T13:43:42.219Z,12.26
2023-01-11T13:46:17.985Z,12.24
2023-01-11T13:48:51.626Z,12.04
2023-01-11T13:51:50.162Z,12.15
2023-01-11T13:54:43.900Z,12.21
2023-01-11T13:57:21.985Z,12.35
2023-01-11T13:59:53.310Z,12.37
2023-01-11T14:02:42.274Z,12.33
2023-01-11T14:05:34.995Z,12.12
2023-01-11T14:08:25.766Z,12.16
2023-01-11T14:10:54.967Z,12.12
2023-01-11T14:14:06.456Z,11.94
2023-01-11T14:17:00.924Z,11.74
2023-01-11T14:19:33.141Z,11.64
2023-01-11T14:22:21.961Z,11.42
2023-01-11T14:25:15.193Z,11.10
2023-01-11T14:28:15.934Z,11.04
2023-01-11T14:30:53.670Z,10.98
2023-01-11T14:33:21.528Z,10.87
2023-01-11T14:36:13.344Z,10.80
2023-01-11T14:39:04.603Z,10.70
2023-01-11T14:41:33.844Z,10.62
2023-01-11T14:44:15.331Z,10.50
2023-01-11T14:46:44.529Z,10.28
2023-01-11T14:49:17.523Z,10.11
2023-01-11T14:51:43.959Z,10.01
2023-01-11T14:54:35.870Z,9.89
2023-01-11T14:57:02.673Z,9.84
2023-01-11T14:59:29.075Z,9.76
2023-01-11T15:02:04.902Z,9.70
2023-01-11T15:04:33.433Z,9.69
2023-01-11T15:07:01.170Z,9.66
2023-01-11T15:09:48.875Z,9.68
2023-01-11T15:12:18.346Z,9.78
2023-01-11T15:14:54.749Z,9.80
2023-01-11T15:17:46.270Z,9.76
2023-01-11T15:20:16.670Z,9.66
2023-01-11T15:22:44.172Z,9.57
2023-01-11T15:25:34.890Z,9.43
2023-01-11T15:28:24.557Z,9.32
2023-01-11T15:30:52.038Z,9.24
2023-01-11T15:33:18.768Z,9.21
2023-01-11T15:35:57.465Z,9.22
2023-01-11T15:38:31.225Z,9.17
2023-01-11T15:41:21.520Z,9.14
2023-01-11T15:44:25.459Z,9.11
2023-01-11T15:47:08.287Z,9.15
2023-01-11T15:49:45.119Z,9.10
2023-01-11T15:52:50.742Z,9.03
2023-01-11T15:55:49.381Z,8.97
2023-01-11T15:58:25.043Z,8.92
2023-01-11T16:01:34.080Z,8.96
2023-01-11T16:04:03.816Z,8.99
2023-01-11T16:06:36.214Z,8.93
2023-01-11T16:09:17.949Z,8.94
2023-01-11T16:12:16.682Z,8.98
2023-01-11T16:15:01.280Z,8.96
2023-01-11T16:17:28.499Z,8.91
2023-01-11T16:19:56.728Z,8.87
2023-01-11T16:22:26.736Z,8.87
2023-01-11T16:24:57.401Z,8.97
2023-01-11T16:27:26.954Z,8.87
2023-01-11T16:29:53.528Z,8.82
2023-01-11T16:32:22.745Z,8.79
2023-01-11T16:34:52.182Z,8.72
2023-01-11T16:37:23.992Z,8.69
2023-01-11T16:40:07.754Z,8.68
2023-01-11T16:42:39.626Z,8.67
2023-01-11T16:45:13.576Z,8.75
2023-01-11T16:47:40.116Z,8.83
2023-01-11T16:50:28.430Z,8.86
2023-01-11T16:52:59.956Z,8.85
2023-01-11T16:55:36.617Z,8.85
2023-01-11T16:58:18.957Z,8.85
2023-01-11T17:00:57.164Z,8.90
2023-01-11T17:03:28.475Z,8.89
2023-01-11T17:05:58.332Z,8.93
2023-01-11T17:08:34.821Z,9.03
2023-01-11T17:11:31.884Z,9.07
2023-01-11T17:14:20.076Z,9.11
2023-01-11T17:16:53.669Z,9.10
2023-01-11T17:19:24.069Z,9.07
2023-01-11T17:21:53.378Z,9.02
2023-01-11T17:24:26.188Z,9.00
2023-01-11T17:27:00.506Z,8.94
2023-01-11T17:29:37.984Z,8.88
2023-01-11T17:32:07.735Z,8.90
2023-01-11T17:34:36.441Z,8.91
2023-01-11T17:37:10.393Z,8.97
2023-01-11T17:39:44.880Z,8.94
2023-01-11T17:42:41.003Z,8.95
2023-01-11T17:45:27.827Z,8.95
2023-01-11T17:47:55.143Z,8.92
2023-01-11T17:50:32.744Z,8.97
2023-01-11T17:53:14.372Z,8.96
2023-01-11T17:55:57.945Z,9.01
2023-01-11T17:58:27.472Z,8.97
2023-01-11T18:01:07.766Z,8.98
2023-01-11T18:03:44.655Z,8.99
2023-01-11T18:06:22.607Z,9.03
2023-01-11T18:08:52.384Z,9.02
2023-01-11T18:11:25.849Z,9.04
2023-01-11T18:13:58.684Z,8.99
2023-01-11T18:16:26.533Z,8.93
2023-01-11T18:18:54.437Z,8.89
2023-01-11T18:21:26.709Z,8.83
2023-01-11T18:24:11.544Z,8.80
2023-01-11T18:26:40.812Z,8.78
2023-01-11T18:29:36.689Z,8.83
2023-01-11T18:32:04.665Z,8.83
2023-01-11T18:34:31.984Z,8.83
2023-01-11T18:37:01.761Z,8.82
2023-01-11T18:39:28.256Z,8.81
2023-01-11T18:42:08.289Z,8.82
2023-01-11T18:44:36.483Z,8.79
2023-01-11T18:47:13.693Z,8.78
2023-01-11T18:49:40.233Z,8.72
2023-01-11T18:52:06.923Z,8.57
2023-01-11T18:54:33.511Z,8.44
2023-01-11T18:57:03.000Z,8.35
2023-01-11T18:59:29.661Z,8.27
2023-01-11T19:02:17.879Z,8.23
2023-01-11T19:04:45.294Z,8.19
2023-01-11T19:07:12.540Z,8.14
2023-01-11T19:09:41.889Z,8.14
2023-01-11T19:12:08.740Z,8.18
2023-01-11T19:14:40.342Z,8.14
2023-01-11T19:17:09.527Z,8.08
2023-01-11T19:19:36.575Z,8.08
2023-01-11T19:22:04.033Z,8.09
2023-01-11T19:24:31.169Z,8.06
2023-01-11T19:26:58.942Z,8.05
2023-01-11T19:29:25.739Z,8.06
2023-01-11T19:31:53.364Z,8.06
2023-01-11T19:34:21.931Z,8.06
2023-01-11T19:36:49.525Z,8.05
2023-01-11T19:39:16.169Z,8.04
2023-01-11T19:41:55.028Z,8.07
2023-01-11T19:44:25.889Z,8.10
2023-01-11T19:47:09.787Z,8.13
2023-01-11T19:49:38.079Z,8.15
2023-01-11T19:52:12.933Z,8.14
2023-01-11T19:54:42.303Z,8.16
2023-01-11T19:57:11.200Z,8.11
2023-01-11T19:59:37.783Z,8.11
2023-01-11T20:02:05.872Z,8.10
2023-01-11T20:04:33.501Z,8.08
2023-01-11T20:07:00.521Z,8.08
2023-01-11T20:09:27.247Z,8.06
2023-01-11T20:11:55.509Z,8.09
2023-01-11T20:14:22.230Z,8.10
2023-01-11T20:16:48.828Z,8.08
2023-01-11T20:19:15.476Z,8.10
2023-01-11T20:21:42.085Z,8.09
2023-01-11T20:24:12.079Z,8.04
2023-01-11T20:26:38.911Z,8.04
2023-01-11T20:29:06.420Z,8.02
2023-01-11T20:31:37.925Z,8.04
2023-01-11T20:34:10.293Z,8.02
2023-01-11T20:36:37.311Z,8.03
2023-01-11T20:39:05.008Z,8.03
2023-01-11T20:41:46.973Z,8.04
2023-01-11T20:44:14.996Z,8.06
2023-01-11T20:46:42.394Z,8.13
2023-01-11T20:49:08.932Z,8.11
2023-01-11T20:51:36.602Z,8.09
2023-01-11T20:54:04.247Z,8.05
2023-01-11T20:56:33.079Z,8.01
2023-01-11T20:59:01.028Z,7.96
2023-01-11T21:01:28.325Z,7.93
2023-01-11T21:03:57.607Z,7.87
2023-01-11T21:06:24.125Z,7.82
2023-01-11T21:08:54.381Z,7.77
2023-01-11T21:11:20.908Z,7.70
2023-01-11T21:13:47.501Z,7.67
2023-01-11T21:16:15.880Z,7.65
2023-01-11T21:18:44.009Z,7.63
2023-01-11T21:21:19.579Z,7.71
2023-01-11T21:23:47.006Z,7.70
2023-01-11T21:26:15.534Z,7.75
2023-01-11T21:28:43.049Z,7.73
2023-01-11T21:31:11.882Z,7.75
2023-01-11T21:33:39.299Z,7.78
2023-01-11T21:36:09.280Z,7.82
2023-01-11T21:38:36.124Z,7.86
2023-01-11T21:41:07.724Z,7.82
2023-01-11T21:43:34.719Z,7.82
2023-01-11T21:46:02.004Z,7.89
2023-01-11T21:48:28.882Z,7.94
2023-01-11T21:50:55.886Z,8.03
2023-01-11T21:53:22.418Z,8.14
2023-01-11T21:55:50.161Z,8.19
2023-01-11T21:58:17.456Z,8.31
2023-01-11T22:00:46.507Z,8.40
2023-01-11T22:03:13.040Z,8.54
2023-01-11T22:05:39.534Z,8.61
2023-01-11T22:08:06.027Z,8.65
2023-01-11T22:10:33.370Z,8.65
2023-01-11T22:13:00.371Z,8.69
2023-01-11T22:15:26.893Z,8.70
2023-01-11T22:17:53.693Z,8.69
2023-01-11T22:20:20.358Z,8.66
2023-01-11T22:22:46.896Z,8.66
2023-01-11T22:25:13.440Z,8.65
2023-01-11T22:27:39.955Z,8.69
2023-01-11T22:30:07.127Z,8.73
2023-01-11T22:32:33.633Z,8.71
2023-01-11T22:35:00.132Z,8.70
2023-01-11T22:37:26.673Z,8.71
2023-01-11T22:39:53.154Z,8.70
2023-01-11T22:42:19.736Z,8.75
2023-01-11T22:44:46.225Z,8.81
2023-01-11T22:47:12.764Z,8.84
2023-01-11T22:49:39.295Z,8.90
2023-01-11T22:52:06.672Z,8.90
2023-01-11T22:54:33.227Z,8.90
2023-01-11T22:56:59.812Z,8.90
2023-01-11T22:59:26.327Z,8.88
2023-01-11T23:01:52.904Z,8.90
2023-01-11T23:04:19.398Z,8.95
2023-01-11T23:06:46.028Z,8.99
2023-01-11T23:09:16.268Z,9.04
2023-01-11T23:12:02.109Z,9.05
2023-01-11T23:14:30.345Z,9.04
2023-01-11T23:17:10.625Z,9.08
2023-01-11T23:19:39.772Z,9.07
2023-01-11T23:22:07.861Z,9.10
2023-01-11T23:24:35.605Z,9.07
2023-01-11T23:27:02.125Z,8.99
2023-01-11T23:29:28.790Z,8.94
2023-01-11T23:31:55.460Z,8.90
2023-01-11T23:34:21.996Z,8.86
2023-01-11T23:36:48.530Z,8.79
2023-01-11T23:39:18.604Z,8.77
2023-01-11T23:42:03.519Z,8.75
2023-01-11T23:44:30.233Z,8.76
2023-01-11T23:47:15.757Z,8.74
2023-01-11T23:49:43.725Z,8.69
2023-01-11T23:52:10.618Z,8.66
2023-01-11T23:54:37.168Z,8.64
2023-01-11T23:57:04.399Z,8.70
2023-01-11T23:59:31.608Z,8.67
